Time;durP1;ratioP1;P1;durP2;ratioP2;P2;SDS_P1;SDS_P2;PMS_P1;PMS_P2;Temp;Humidity;BMP_temperature;BMP_pressure;BME280_temperature;BME280_humidity;BME280_pressure;Samples;Min_cycle;Max_cycle;Signal;HPM_P1;HPM_P2
2022/08/14 00:01:14;;;;;;;10.90;8.70;;;;;;;24.26;60.62;100170.06;1696240;83;21533;-76
2022/08/14 00:03:41;;;;;;;12.70;8.90;;;;;;;24.26;60.44;100171.42;1713764;83;21103;-75
2022/08/14 00:06:07;;;;;;;10.80;8.60;;;;;;;24.27;60.23;100170.27;1727240;83;21007;-74
2022/08/14 00:08:34;;;;;;;10.53;9.40;;;;;;;24.27;60.19;100166.95;1706445;83;21581;-76
2022/08/14 00:11:01;;;;;;;9.33;8.27;;;;;;;24.27;59.97;100162.08;1727051;82;21412;-75
2022/08/14 00:13:28;;;;;;;11.57;8.57;;;;;;;24.26;59.75;100165.96;1727077;82;21050;-76
2022/08/14 00:15:57;;;;;;;9.57;8.57;;;;;;;24.27;59.66;100168.90;1726988;83;21153;-75
2022/08/14 00:18:26;;;;;;;10.93;8.70;;;;;;;24.27;59.60;100166.17;1727224;83;20960;-75
2022/08/14 00:20:52;;;;;;;10.33;8.20;;;;;;;24.28;59.55;100168.55;1726959;83;21130;-75
2022/08/14 00:23:19;;;;;;;11.20;8.63;;;;;;;24.29;59.39;100172.86;1726795;82;21270;-75
2022/08/14 00:25:50;;;;;;;11.57;8.80;;;;;;;24.28;59.34;100169.92;1713938;83;21027;-76
2022/08/14 00:28:17;;;;;;;10.90;8.57;;;;;;;24.25;59.26;100161.63;1727435;83;21035;-74
2022/08/14 00:30:45;;;;;;;10.50;7.97;;;;;;;24.25;59.25;100165.73;1727073;82;21075;-76
2022/08/14 00:33:12;;;;;;;8.97;8.03;;;;;;;24.24;59.11;100164.16;1727470;83;20956;-75
2022/08/14 00:35:39;;;;;;;10.13;8.33;;;;;;;24.22;59.00;100164.53;1726928;82;21164;-75
2022/08/14 00:38:06;;;;;;;11.07;8.47;;;;;;;24.19;59.02;100158.42;1727087;83;21225;-76
2022/08/14 00:40:33;;;;;;;11.43;8.57;;;;;;;24.21;59.04;100162.14;1726922;82;20980;-76
2022/08/14 00:43:01;;;;;;;12.03;8.47;;;;;;;24.21;58.98;100160.78;1726889;82;21178;-75
2022/08/14 00:45:27;;;;;;;11.17;8.27;;;;;;;24.20;58.92;100157.84;1726592;83;21489;-73
2022/08/14 00:47:54;;;;;;;10.13;7.90;;;;;;;24.14;58.86;100156.54;1701411;83;21645;-75
2022/08/14 00:50:21;;;;;;;11.60;8.90;;;;;;;24.12;58.87;100152.82;1726817;82;21082;-75
2022/08/14 00:52:51;;;;;;;12.63;8.43;;;;;;;24.13;58.78;100151.66;1726957;82;21055;-74
2022/08/14 00:55:18;;;;;;;13.60;8.87;;;;;;;24.10;58.81;100151.02;1726856;81;21024;-76
2022/08/14 00:58:29;;;;;;;9.37;7.77;;;;;;;24.08;58.71;100151.36;1734934;81;21171;-74
2022/08/14 01:00:14;;;;;;;10.30;7.63;;;;;;;24.05;58.86;100145.83;1730289;82;21156;-75
2022/08/14 01:02:42;;;;;;;10.57;8.57;;;;;;;24.01;58.75;100151.21;1735107;81;20946;-75
2022/08/14 01:05:22;;;;;;;10.57;8.40;;;;;;;23.99;58.85;100149.44;1734687;82;20981;-76
2022/08/14 01:07:39;;;;;;;11.53;8.60;;;;;;;23.96;58.93;100151.51;1732497;82;20970;-75
2022/08/14 01:10:07;;;;;;;13.40;8.37;;;;;;;23.96;59.09;100158.33;1734659;81;20988;-76
2022/08/14 01:12:34;;;;;;;10.23;7.77;;;;;;;23.93;59.11;100156.31;1734918;82;21500;-76
2022/08/14 01:15:01;;;;;;;9.97;7.63;;;;;;;23.93;58.76;100148.70;1703751;82;20980;-76
2022/08/14 01:23:00;;;;;;;9.47;8.43;;;;;;;23.94;58.45;100161.98;1735903;82;21026;-75
2022/08/14 01:25:26;;;;;;;9.20;7.67;;;;;;;23.94;58.21;100159.25;1736105;81;21261;-76
2022/08/14 01:27:54;;;;;;;11.47;7.73;;;;;;;23.96;58.25;100154.81;1735832;81;21127;-75
2022/08/14 01:30:22;;;;;;;11.10;7.93;;;;;;;23.98;58.03;100159.32;1735186;82;20954;-75
2022/08/14 01:32:49;;;;;;;11.77;7.93;;;;;;;23.97;58.04;100158.53;1735727;82;21064;-76
2022/08/14 01:35:16;;;;;;;8.53;7.30;;;;;;;24.01;57.77;100162.70;1736266;81;20977;-76
2022/08/14 01:37:45;;;;;;;9.37;7.50;;;;;;;24.02;57.63;100156.09;1736450;82;21219;-75
2022/08/14 01:40:12;;;;;;;10.40;7.60;;;;;;;24.03;57.31;100163.14;1738083;82;20957;-78
2022/08/14 01:42:43;;;;;;;10.50;7.23;;;;;;;24.03;57.07;100151.66;1682461;81;21074;-76
2022/08/14 01:45:13;;;;;;;;;;;;;;;24.04;56.97;100157.89;1730899;81;21047;-75
2022/08/14 01:47:39;;;;;;;11.13;7.63;;;;;;;24.05;57.05;100154.83;1738562;81;20398;-77
2022/08/14 01:50:08;;;;;;;10.10;8.03;;;;;;;24.02;57.00;100155.54;1730701;81;21194;-74
2022/08/14 01:52:36;;;;;;;10.27;7.70;;;;;;;24.00;57.10;100161.12;1735989;81;21001;-76
2022/08/14 01:55:07;;;;;;;13.13;7.63;;;;;;;24.00;57.05;100159.77;1725763;83;21009;-77
2022/08/14 01:57:36;;;;;;;11.40;8.23;;;;;;;23.98;57.15;100160.69;1727276;82;20965;-76
2022/08/14 02:00:08;;;;;;;9.40;7.47;;;;;;;23.96;57.07;100160.27;1726251;81;21049;-75
2022/08/14 02:02:35;;;;;;;9.93;7.65;;;;;;;23.92;57.06;100152.56;1726959;82;21841;-77
2022/08/14 02:05:01;;;;;;;11.47;8.20;;;;;;;23.89;57.09;100155.45;1726714;82;21020;-75
2022/08/14 02:07:31;;;;;;;8.83;7.30;;;;;;;23.86;57.10;100156.95;1726799;82;21599;-75
2022/08/14 02:09:58;;;;;;;8.53;7.30;;;;;;;23.82;57.27;100156.09;1726276;81;21068;-76
2022/08/14 02:12:25;;;;;;;12.27;7.53;;;;;;;23.77;57.48;100155.56;1726671;82;21056;-79
2022/08/14 02:14:52;;;;;;;9.30;7.27;;;;;;;23.71;57.60;100151.52;1726287;82;21985;-75
2022/08/14 02:17:22;;;;;;;8.90;7.97;;;;;;;23.64;57.78;100153.48;1726206;81;21010;-76
2022/08/14 02:19:49;;;;;;;9.47;7.27;;;;;;;23.57;58.01;100154.12;1720605;81;21530;-76
2022/08/14 02:22:17;;;;;;;10.13;7.87;;;;;;;23.56;58.07;100155.27;1698925;84;21612;-76
2022/08/14 02:24:45;;;;;;;10.80;7.50;;;;;;;23.51;57.95;100151.44;1699818;84;21034;-75
2022/08/14 02:27:12;;;;;;;9.97;7.60;;;;;;;23.47;58.04;100156.60;1700401;84;21238;-75
2022/08/14 02:29:39;;;;;;;9.47;7.53;;;;;;;23.44;58.14;100154.00;1700254;83;21042;-75
2022/08/14 02:32:07;;;;;;;10.50;7.67;;;;;;;23.41;58.26;100159.58;1699715;84;21086;-76
2022/08/14 02:34:35;;;;;;;9.10;7.20;;;;;;;23.37;58.32;100160.66;1700467;84;20983;-77
2022/08/14 02:37:08;;;;;;;10.30;8.27;;;;;;;23.33;58.43;100163.30;1700123;84;20963;-74
2022/08/14 02:39:43;;;;;;;10.17;7.43;;;;;;;23.28;58.45;100158.67;1699715;84;21575;-75
2022/08/14 02:42:12;;;;;;;8.17;6.63;;;;;;;23.24;58.60;100165.41;1700079;84;21102;-76
2022/08/14 02:44:41;;;;;;;10.00;7.87;;;;;;;23.21;58.89;100171.55;1714358;82;21031;-75
2022/08/14 02:47:07;;;;;;;8.60;7.10;;;;;;;23.18;58.95;100172.25;1729892;82;21020;-75
2022/08/14 02:49:36;;;;;;;8.70;7.37;;;;;;;23.14;58.84;100168.08;1729916;82;20921;-75
2022/08/14 02:52:06;;;;;;;8.07;7.27;;;;;;;23.13;58.91;100169.78;1727006;81;21138;-76
2022/08/14 02:54:34;;;;;;;9.97;7.50;;;;;;;23.11;58.97;100168.78;1727180;83;20980;-77
2022/08/14 02:57:04;;;;;;;7.83;7.03;;;;;;;23.09;59.05;100171.63;1727094;83;21004;-75
2022/08/14 02:59:30;;;;;;;9.37;7.57;;;;;;;23.07;59.20;100167.12;1727048;81;21142;-75
2022/08/14 03:01:57;;;;;;;9.07;7.50;;;;;;;23.06;59.19;100171.75;1747257;82;21003;-75
2022/08/14 03:04:27;;;;;;;9.57;7.43;;;;;;;23.06;59.26;100172.33;1747299;82;21141;-75
2022/08/14 03:06:53;;;;;;;8.67;7.57;;;;;;;23.07;59.20;100174.72;1747023;82;21050;-75
2022/08/14 03:09:20;;;;;;;9.13;7.40;;;;;;;23.06;59.35;100170.39;1746958;82;21082;-76
2022/08/14 03:11:47;;;;;;;12.03;8.00;;;;;;;23.09;59.10;100168.91;1747300;82;21018;-75
2022/08/14 03:14:14;;;;;;;9.23;7.60;;;;;;;23.13;59.05;100170.59;1747309;82;21073;-75
2022/08/14 03:16:41;;;;;;;8.73;7.33;;;;;;;23.18;58.79;100169.53;1747368;82;21063;-74
2022/08/14 03:19:08;;;;;;;8.30;7.20;;;;;;;23.23;58.66;100173.36;1747387;82;21030;-74
2022/08/14 03:21:36;;;;;;;10.00;7.23;;;;;;;23.27;58.69;100172.09;1747380;82;21093;-75
2022/08/14 03:26:34;;;;;;;8.73;7.70;;;;;;;23.33;58.44;100170.66;1747192;82;21026;-76
2022/08/14 03:29:07;;;;;;;8.33;6.93;;;;;;;23.34;58.48;100172.26;1747161;82;21225;-75
2022/08/14 03:31:37;;;;;;;9.27;7.27;;;;;;;23.36;58.38;100172.68;1747384;82;21113;-75
2022/08/14 03:34:04;;;;;;;8.67;6.97;;;;;;;23.36;58.26;100173.49;1746930;82;20963;-74
2022/08/14 03:36:31;;;;;;;9.43;7.50;;;;;;;23.35;58.17;100173.83;1747265;82;21042;-75
2022/08/14 03:38:58;;;;;;;12.57;8.23;;;;;;;23.33;58.26;100173.38;1747195;82;21050;-75
2022/08/14 03:41:26;;;;;;;8.73;6.77;;;;;;;23.32;58.27;100179.41;1747406;82;21816;-75
2022/08/14 03:43:57;;;;;;;8.30;7.00;;;;;;;23.34;58.21;100174.98;1710811;82;21526;-75
2022/08/14 03:46:33;;;;;;;14.03;7.50;;;;;;;23.38;58.28;100171.19;1698117;84;21031;-76
2022/08/14 03:49:04;;;;;;;8.77;7.73;;;;;;;23.42;58.18;100172.63;1697821;84;21809;-74
2022/08/14 03:51:32;;;;;;;;;;;;;;;23.45;58.18;100174.66;1700650;83;21127;-74
2022/08/14 03:54:11;;;;;;;9.95;6.67;;;;;;;23.47;58.40;100180.55;1721394;83;21533;-74
2022/08/14 03:56:39;;;;;;;8.00;6.87;;;;;;;23.49;58.33;100177.47;1726735;81;21102;-76
2022/08/14 03:59:10;;;;;;;8.10;6.73;;;;;;;23.50;58.33;100170.31;1726460;83;21577;-75
2022/08/14 04:01:35;;;;;;;8.77;6.90;;;;;;;23.54;58.25;100175.84;1730046;81;21054;-75
2022/08/14 04:04:04;;;;;;;10.17;7.40;;;;;;;23.57;58.13;100171.84;1747041;82;21010;-76
2022/08/14 04:06:36;;;;;;;8.47;6.73;;;;;;;23.62;58.09;100170.19;1747180;82;22074;-77
2022/08/14 04:09:05;;;;;;;9.47;7.57;;;;;;;23.63;57.80;100171.79;1747327;82;20931;-75
2022/08/14 04:11:35;;;;;;;10.87;7.27;;;;;;;23.63;57.79;100167.70;1747242;82;21057;-76
2022/08/14 04:14:04;;;;;;;11.50;7.50;;;;;;;23.63;57.74;100163.61;1746529;82;21033;-76
2022/08/14 04:16:30;;;;;;;11.43;7.23;;;;;;;23.65;57.45;100161.30;1747949;82;21022;-74
2022/08/14 04:18:58;;;;;;;9.23;7.47;;;;;;;23.66;57.27;100168.94;1747719;82;21229;-75
2022/08/14 04:21:28;;;;;;;9.83;7.30;;;;;;;23.67;57.13;100165.63;1747279;82;20954;-77
2022/08/14 04:24:04;;;;;;;8.13;6.87;;;;;;;23.68;57.15;100163.11;1747058;82;21626;-76
2022/08/14 04:26:38;;;;;;;8.87;7.10;;;;;;;23.70;57.16;100157.55;1747344;82;20966;-76
2022/08/14 04:29:08;;;;;;;9.30;6.57;;;;;;;23.67;57.15;100153.36;1747212;82;21105;-76
2022/08/14 04:31:37;;;;;;;11.03;6.77;;;;;;;23.67;57.11;100152.00;1747166;82;21208;-75
2022/08/14 04:34:11;;;;;;;8.47;6.87;;;;;;;23.67;57.03;100150.05;1746927;82;21654;-75
2022/08/14 04:45:36;;;;;;;9.43;7.37;;;;;;;23.76;57.02;100148.54;1700321;83;21485;-76
2022/08/14 04:48:12;;;;;;;8.10;6.80;;;;;;;23.82;56.97;100152.54;1695493;84;20940;-76
2022/08/14 04:50:46;;;;;;;7.93;6.37;;;;;;;23.87;57.07;100155.00;1693467;83;21032;-76
2022/08/14 04:53:17;;;;;;;9.00;6.60;;;;;;;23.91;56.68;100152.35;1726067;81;20995;-75
2022/08/14 04:55:47;;;;;;;9.73;7.10;;;;;;;23.93;56.56;100146.77;1727797;81;20981;-77
2022/08/14 04:58:16;;;;;;;8.67;6.77;;;;;;;23.99;56.55;100148.06;1734838;82;21073;-76
2022/08/14 05:00:49;;;;;;;9.10;7.00;;;;;;;24.06;56.57;100153.67;1734460;82;20910;-76
2022/08/14 05:03:14;;;;;;;8.23;6.85;;;;;;;24.11;56.25;100150.64;1734580;81;21000;-76
2022/08/14 05:05:41;;;;;;;10.40;6.83;;;;;;;24.17;56.07;100150.38;1734699;81;20946;-76
2022/08/14 05:08:11;;;;;;;10.00;7.60;;;;;;;24.22;55.97;100151.44;1734739;82;21484;-76
2022/08/14 05:10:44;;;;;;;9.43;7.20;;;;;;;24.28;56.18;100154.09;1734663;82;21246;-76
2022/08/14 05:13:12;;;;;;;8.57;6.80;;;;;;;24.36;56.26;100155.83;1734435;82;20927;-77
2022/08/14 05:15:41;;;;;;;7.53;6.77;;;;;;;24.43;56.19;100156.58;1734693;82;21119;-75
2022/08/14 05:18:11;;;;;;;8.63;7.17;;;;;;;24.49;55.89;100155.92;1735359;81;20946;-74
2022/08/14 05:20:41;;;;;;;7.87;6.57;;;;;;;24.57;55.89;100163.67;1734616;82;21523;-77
2022/08/14 05:23:07;;;;;;;7.60;6.60;;;;;;;24.70;55.71;100161.57;1734805;81;21864;-76
2022/08/14 05:25:35;;;;;;;8.47;7.20;;;;;;;24.83;55.66;100160.25;1734498;81;21432;-75
2022/08/14 05:28:19;;;;;;;9.17;7.23;;;;;;;24.95;55.12;100160.08;1734783;81;21440;-73
2022/08/14 05:30:56;;;;;;;9.40;7.13;;;;;;;25.06;54.90;100149.91;1734626;81;20962;-77
2022/08/14 05:33:27;;;;;;;8.33;7.40;;;;;;;25.13;54.62;100154.16;1735253;82;21089;-75
2022/08/14 05:36:00;;;;;;;8.70;7.28;;;;;;;25.18;54.46;100155.23;1706826;82;21109;-76
2022/08/14 05:38:32;;;;;;;8.60;6.13;;;;;;;25.25;54.14;100158.08;1697860;84;21060;-76
2022/08/14 05:41:01;;;;;;;8.37;6.97;;;;;;;25.35;54.28;100154.72;1697861;84;21058;-75
2022/08/14 05:43:29;;;;;;;8.63;6.73;;;;;;;25.44;54.02;100156.63;1699208;84;20995;-74
2022/08/14 05:45:57;;;;;;;8.73;6.83;;;;;;;25.55;54.02;100154.63;1699891;84;21117;-73
2022/08/14 05:48:25;;;;;;;7.67;6.87;;;;;;;25.65;53.96;100152.63;1698416;84;21258;-74
2022/08/14 05:50:53;;;;;;;8.10;6.60;;;;;;;25.73;53.62;100152.37;1697776;84;21030;-76
2022/08/14 05:53:22;;;;;;;8.40;6.70;;;;;;;25.78;53.26;100158.09;1721811;81;21099;-74
2022/08/14 05:55:49;;;;;;;9.13;7.30;;;;;;;25.85;53.28;100150.00;1725459;81;21530;-76
2022/08/14 05:58:15;;;;;;;8.33;7.20;;;;;;;25.93;53.30;100150.91;1697862;84;21653;-76
2022/08/14 06:00:44;;;;;;;9.23;7.33;;;;;;;25.99;53.34;100150.77;1707749;81;21228;-75
2022/08/14 06:03:15;;;;;;;10.30;7.00;;;;;;;26.06;52.97;100148.70;1747248;82;21129;-76
2022/08/14 06:05:43;;;;;;;9.48;7.47;;;;;;;26.10;53.08;100143.50;1747330;82;21018;-76
2022/08/14 06:08:26;;;;;;;10.23;7.40;;;;;;;26.15;52.81;100143.73;1747365;82;21043;-74
2022/08/14 06:10:55;;;;;;;8.07;7.20;;;;;;;26.22;52.65;100144.41;1745948;81;20919;-75
2022/08/14 06:13:22;;;;;;;8.30;6.63;;;;;;;26.27;52.48;100146.24;1747209;82;21174;-79
2022/08/14 06:15:49;;;;;;;13.53;8.10;;;;;;;26.31;52.00;100144.33;1747209;82;21069;-75
2022/08/14 06:18:17;;;;;;;8.10;7.17;;;;;;;26.32;51.92;100136.89;1747181;82;21434;-75
2022/08/14 06:20:45;;;;;;;8.37;7.37;;;;;;;26.34;51.53;100136.73;1747115;82;20970;-78
2022/08/14 06:23:12;;;;;;;7.70;6.90;;;;;;;26.36;51.47;100137.16;1747475;82;21615;-75
2022/08/14 06:25:39;;;;;;;9.53;7.63;;;;;;;26.40;51.60;100137.98;1747332;82;21618;-75
2022/08/14 06:28:05;;;;;;;8.13;7.33;;;;;;;26.45;51.69;100136.84;1747366;82;21033;-77
2022/08/14 06:30:33;;;;;;;8.30;7.17;;;;;;;26.48;51.61;100139.45;1744767;81;21037;-75
2022/08/14 06:33:00;;;;;;;8.03;7.07;;;;;;;26.49;51.32;100139.09;1744741;82;20963;-76
2022/08/14 06:35:27;;;;;;;7.83;6.47;;;;;;;26.48;50.77;100138.09;1726886;82;21055;-74
2022/08/14 06:37:57;;;;;;;7.33;6.57;;;;;;;26.54;51.53;100137.95;1727092;81;21151;-75
2022/08/14 06:40:27;;;;;;;10.03;6.83;;;;;;;26.61;51.32;100142.14;1739468;82;21629;-76
2022/08/14 06:42:57;;;;;;;8.23;6.73;;;;;;;26.66;51.41;100141.81;1726831;82;20984;-76
2022/08/14 06:45:24;;;;;;;8.40;6.93;;;;;;;26.72;51.30;100144.42;1739460;82;21538;-75
2022/08/14 06:47:52;;;;;;;8.77;6.97;;;;;;;26.81;51.46;100144.88;1726930;81;20972;-76
2022/08/14 06:50:20;;;;;;;9.03;7.17;;;;;;;26.89;50.91;100147.12;1739680;82;21157;-75
2022/08/14 06:52:47;;;;;;;8.73;6.87;;;;;;;26.95;50.55;100141.50;1732344;81;21040;-76
2022/08/14 06:55:18;;;;;;;7.77;6.70;;;;;;;27.07;50.48;100145.90;1757984;81;21552;-75
2022/08/14 06:57:48;;;;;;;7.45;6.70;;;;;;;27.14;49.45;100144.61;1752276;81;21024;-76
2022/08/14 07:00:19;;;;;;;8.00;7.20;;;;;;;27.26;49.69;100140.20;1751836;81;21064;-76
2022/08/14 07:05:47;;;;;;;9.77;6.70;;;;;;;27.83;49.46;100134.33;1751829;81;21008;-75
2022/08/14 07:08:28;;;;;;;7.73;6.47;;;;;;;28.24;47.65;100136.87;1751814;81;20980;-75
2022/08/14 07:10:57;;;;;;;8.40;7.30;;;;;;;28.52;46.24;100143.83;1752139;81;21012;-76
2022/08/14 07:13:23;;;;;;;8.27;6.47;;;;;;;28.70;45.86;100145.25;1753047;81;20952;-73
2022/08/14 07:15:53;;;;;;;6.70;6.00;;;;;;;28.79;45.46;100147.60;1752893;81;21156;-75
2022/08/14 07:18:25;;;;;;;6.97;6.33;;;;;;;28.85;45.41;100147.42;1752132;81;21494;-74
2022/08/14 07:20:52;;;;;;;8.40;6.60;;;;;;;28.91;45.58;100149.20;1751573;81;20940;-75
2022/08/14 07:23:19;;;;;;;6.90;6.20;;;;;;;28.93;44.94;100146.86;1752402;81;20995;-75
2022/08/14 07:25:47;;;;;;;9.43;6.90;;;;;;;28.89;45.59;100141.36;1752030;81;21587;-75
2022/08/14 07:28:22;;;;;;;7.40;6.43;;;;;;;28.83;45.43;100142.92;1752134;82;21609;-75
2022/08/14 07:30:51;;;;;;;8.43;6.50;;;;;;;28.74;45.79;100135.05;1751944;81;21063;-74
2022/08/14 07:33:18;;;;;;;9.33;6.90;;;;;;;28.63;46.10;100140.31;1734196;81;21067;-75
2022/08/14 07:35:45;;;;;;;8.23;6.53;;;;;;;28.61;46.16;100140.72;1726759;82;20991;-75
2022/08/14 07:38:19;;;;;;;9.67;6.67;;;;;;;28.67;46.77;100143.28;1726798;83;20956;-75
2022/08/14 07:40:47;;;;;;;7.67;6.33;;;;;;;28.74;46.20;100134.27;1726756;83;21200;-74
2022/08/14 07:43:14;;;;;;;8.60;6.10;;;;;;;28.93;46.26;100139.98;1738347;81;20980;-77
2022/08/14 07:45:40;;;;;;;7.70;6.10;;;;;;;29.19;46.35;100129.22;1737923;81;21049;-75
2022/08/14 07:48:07;;;;;;;7.83;5.83;;;;;;;29.48;45.44;100131.91;1727432;83;21525;-77
2022/08/14 07:50:34;;;;;;;6.93;6.33;;;;;;;29.72;45.39;100135.84;1703173;82;22545;-74
2022/08/14 07:53:01;;;;;;;6.70;6.03;;;;;;;29.87;43.79;100143.63;1696620;83;21126;-74
2022/08/14 07:55:28;;;;;;;8.40;6.50;;;;;;;29.91;43.21;100140.86;1721964;82;21012;-77
2022/08/14 07:57:55;;;;;;;9.10;6.37;;;;;;;29.87;43.17;100131.24;1724912;81;21545;-75
2022/08/14 08:00:23;;;;;;;10.33;6.43;;;;;;;29.85;42.81;100130.88;1736998;82;21019;-75
2022/08/14 08:02:52;;;;;;;7.80;6.30;;;;;;;29.81;42.90;100129.30;1737213;82;21161;-75
2022/08/14 08:05:20;;;;;;;8.63;6.47;;;;;;;29.82;43.19;100136.39;1737456;82;21160;-75
2022/08/14 08:07:47;;;;;;;7.80;6.20;;;;;;;29.79;43.05;100135.81;1735875;81;21035;-75
2022/08/14 08:10:32;;;;;;;7.30;6.50;;;;;;;29.68;43.22;100133.88;1737032;82;21438;-74
2022/08/14 08:13:09;;;;;;;7.20;6.20;;;;;;;29.66;43.72;100134.08;1737299;82;21615;-75
2022/08/14 08:15:40;;;;;;;9.40;6.50;;;;;;;29.62;43.50;100129.95;1734266;81;21572;-75
2022/08/14 08:18:09;;;;;;;9.90;6.93;;;;;;;29.61;43.80;100133.09;1722506;83;21122;-75
2022/08/14 08:20:40;;;;;;;8.10;6.33;;;;;;;29.56;43.74;100130.73;1721880;83;21126;-75
2022/08/14 08:23:07;;;;;;;7.55;6.40;;;;;;;29.63;43.91;100132.11;1747592;81;21090;-75
2022/08/14 08:25:36;;;;;;;6.80;6.10;;;;;;;29.72;43.77;100131.71;1757844;81;21066;-75
2022/08/14 08:28:12;;;;;;;7.30;6.50;;;;;;;29.78;43.83;100130.91;1752273;81;21110;-75
2022/08/14 08:30:43;;;;;;;7.70;6.37;;;;;;;29.88;44.12;100126.55;1749031;81;21165;-75
2022/08/14 08:33:10;;;;;;;7.87;6.90;;;;;;;29.99;42.92;100121.77;1687483;85;21146;-74
2022/08/14 08:35:40;;;;;;;8.93;7.60;;;;;;;30.04;43.17;100125.50;1712236;83;21011;-77
2022/08/14 08:38:12;;;;;;;8.13;6.67;;;;;;;30.12;42.85;100126.24;1687764;85;21703;-73
2022/08/14 08:40:47;;;;;;;9.30;6.90;;;;;;;30.22;42.04;100123.28;1712524;83;21501;-74
2022/08/14 08:43:27;;;;;;;10.60;6.40;;;;;;;30.32;41.89;100121.05;1721608;81;21233;-75
2022/08/14 08:46:10;;;;;;;7.23;6.27;;;;;;;30.40;41.37;100114.90;1727150;83;21067;-75
2022/08/14 08:48:47;;;;;;;9.03;6.90;;;;;;;30.44;41.41;100122.55;1727011;82;21114;-75
2022/08/14 08:51:37;;;;;;;6.87;6.13;;;;;;;30.45;41.64;100118.02;1726790;82;21126;-75
2022/08/14 08:54:08;;;;;;;6.77;6.07;;;;;;;30.53;41.93;100116.78;1749268;81;21067;-75
2022/08/14 08:56:42;;;;;;;7.20;6.35;;;;;;;30.56;40.88;100109.08;1757629;81;21205;-75
2022/08/14 08:59:29;;;;;;;8.43;6.00;;;;;;;30.52;40.28;100108.33;1722163;82;21438;-75
2022/08/14 09:02:06;;;;;;;6.70;5.87;;;;;;;30.47;40.90;100110.72;1757340;81;21062;-75
2022/08/14 09:04:43;;;;;;;7.23;6.23;;;;;;;30.42;40.83;100105.05;1757596;81;21054;-75
2022/08/14 09:07:12;;;;;;;8.77;7.30;;;;;;;30.41;40.27;100099.36;1757811;81;21043;-74
2022/08/14 09:09:50;;;;;;;8.30;6.40;;;;;;;30.42;41.30;100100.92;1757662;81;21537;-75
2022/08/14 09:12:18;;;;;;;9.27;6.87;;;;;;;30.53;41.61;100092.57;1757516;81;20987;-75
2022/08/14 09:14:50;;;;;;;7.17;6.10;;;;;;;30.68;41.75;100087.76;1757589;81;21550;-75
2022/08/14 09:17:16;;;;;;;7.75;6.08;;;;;;;30.81;40.49;100088.86;1757684;81;21089;-75
2022/08/14 09:19:42;;;;;;;8.57;5.67;;;;;;;30.82;41.39;100096.72;1757535;81;20931;-74
2022/08/14 09:22:09;;;;;;;7.30;6.37;;;;;;;30.86;40.99;100091.17;1757668;81;22280;-74
2022/08/14 09:24:37;;;;;;;6.87;6.17;;;;;;;30.87;41.45;100096.12;1757340;81;21015;-75
2022/08/14 09:27:04;;;;;;;8.10;6.33;;;;;;;30.86;40.41;100095.30;1757645;81;21110;-75
2022/08/14 09:29:32;;;;;;;9.03;6.23;;;;;;;30.83;40.29;100101.63;1751450;81;21008;-75
2022/08/14 09:32:01;;;;;;;8.33;6.70;;;;;;;30.79;40.44;100092.02;1722854;81;21027;-73
2022/08/14 09:34:38;;;;;;;7.77;6.90;;;;;;;30.77;40.99;100099.92;1718741;83;21095;-76
2022/08/14 09:37:36;;;;;;;7.90;6.60;;;;;;;30.83;40.69;100096.92;1722098;82;21565;-74
2022/08/14 09:40:36;;;;;;;7.80;6.67;;;;;;;30.92;41.08;100106.69;1726163;82;21155;-75
2022/08/14 09:43:45;;;;;;;7.33;6.42;;;;;;;31.05;40.74;100105.00;1718144;81;21051;-75
2022/08/14 09:46:12;;;;;;;16.80;11.00;;;;;;;31.09;40.37;100101.61;1726802;82;20992;-74
2022/08/14 09:48:38;;;;;;;12.90;10.90;;;;;;;30.97;40.38;100111.19;1720062;83;21109;-76
2022/08/14 09:51:22;;;;;;;9.33;7.80;;;;;;;30.91;40.24;100100.40;1696834;82;38187;-76
2022/08/14 09:54:00;;;;;;;11.30;8.17;;;;;;;30.92;41.06;100102.55;1726866;83;21051;-73
2022/08/14 09:56:26;;;;;;;13.60;11.80;;;;;;;30.85;40.55;100102.02;1727014;82;21090;-77
2022/08/14 09:58:53;;;;;;;9.53;6.70;;;;;;;30.68;40.77;100107.83;1739509;81;21066;-74
2022/08/14 10:01:20;;;;;;;8.63;7.17;;;;;;;30.50;40.36;100113.45;1717812;82;21156;-75
2022/08/14 10:03:54;;;;;;;7.83;6.47;;;;;;;30.34;40.83;100107.67;1747052;82;21057;-75
2022/08/14 10:06:26;;;;;;;12.27;10.97;;;;;;;30.32;40.78;100103.92;1746893;82;20994;-75
2022/08/14 10:09:05;;;;;;;11.00;8.23;;;;;;;30.37;41.64;100107.65;1747298;82;21046;-73
2022/08/14 10:11:36;;;;;;;8.87;7.00;;;;;;;30.53;40.96;100104.97;1747334;82;21065;-75
2022/08/14 10:27:24;;;;;;;6.57;5.37;;;;;;;31.82;38.67;100097.73;1791964;79;26866;-68
2022/08/14 10:29:54;;;;;;;13.75;12.30;;;;;;;31.89;38.20;100092.15;1821658;78;21575;-69
2022/08/14 10:32:22;;;;;;;27.82;25.30;;;;;;;31.97;38.99;100096.97;1809596;78;21123;-68
2022/08/14 10:34:49;;;;;;;11.28;10.08;;;;;;;32.02;39.60;100098.48;1816539;78;20923;-69
2022/08/14 10:37:17;;;;;;;10.13;9.08;;;;;;;32.10;38.53;100095.22;1810736;78;21506;-69
2022/08/14 10:39:59;;;;;;;7.70;5.85;;;;;;;32.15;38.92;100089.81;1789116;80;21556;-70
2022/08/14 10:42:38;;;;;;;6.30;5.55;;;;;;;32.15;38.61;100090.63;1789925;80;20924;-69
2022/08/14 10:45:24;;;;;;;5.90;5.30;;;;;;;32.10;37.96;100084.17;1789718;80;21334;-69
2022/08/14 10:47:55;;;;;;;6.33;5.67;;;;;;;32.06;38.28;100084.83;1789721;80;21486;-68
2022/08/14 10:50:34;;;;;;;7.60;6.72;;;;;;;32.07;38.20;100082.84;1788716;80;21055;-71
2022/08/14 10:53:04;;;;;;;7.72;5.75;;;;;;;32.11;39.49;100086.33;1789983;80;20968;-68
2022/08/14 10:55:40;;;;;;;9.25;5.62;;;;;;;32.12;37.59;100085.16;1790095;80;20955;-69
2022/08/14 10:58:11;;;;;;;9.93;5.80;;;;;;;32.02;37.70;100092.38;1786562;80;21203;-70
2022/08/14 11:00:43;;;;;;;10.20;9.08;;;;;;;31.91;38.09;100085.59;1789803;80;20988;-69
2022/08/14 11:03:16;;;;;;;7.47;6.72;;;;;;;31.94;38.67;100083.39;1787320;80;21007;-67
2022/08/14 11:05:49;;;;;;;13.65;12.25;;;;;;;32.09;38.20;100094.27;1759246;79;21202;-68
2022/08/14 11:08:19;;;;;;;10.53;9.25;;;;;;;32.25;39.07;100097.20;1782247;80;21047;-69
2022/08/14 11:10:57;;;;;;;10.00;8.98;;;;;;;32.41;38.94;100091.03;1789207;80;21537;-70
2022/08/14 11:13:27;;;;;;;7.85;6.90;;;;;;;32.50;37.76;100090.55;1789939;80;21091;-70
2022/08/14 11:15:59;;;;;;;11.85;6.22;;;;;;;32.62;37.74;100098.27;1803490;78;21007;-69
2022/08/14 11:18:27;;;;;;;10.82;6.28;;;;;;;32.67;37.21;100093.02;1790730;80;20995;-69
2022/08/14 11:20:58;;;;;;;7.70;5.58;;;;;;;32.69;36.89;100085.10;1791265;80;21050;-68
2022/08/14 11:23:27;;;;;;;;;;;;;;;32.69;37.18;100083.72;1793629;80;21121;-70
2022/08/14 11:25:56;;;;;;;6.15;5.12;;;;;;;32.78;37.76;100075.50;1790989;80;20164;-70
2022/08/14 11:28:25;;;;;;;7.65;4.90;;;;;;;32.82;36.99;100083.91;1790025;80;21070;-69
2022/08/14 11:30:55;;;;;;;7.72;5.78;;;;;;;32.85;37.66;100079.53;1790284;80;21043;-68
2022/08/14 11:33:29;;;;;;;6.35;5.30;;;;;;;32.85;36.63;100078.14;1790332;80;20931;-67
2022/08/14 11:35:56;;;;;;;8.40;5.72;;;;;;;32.81;35.54;100069.13;1789890;80;21141;-70
2022/08/14 11:38:24;;;;;;;7.30;5.30;;;;;;;32.67;35.99;100079.20;1790076;79;21061;-70
2022/08/14 11:40:51;;;;;;;9.50;5.53;;;;;;;32.50;35.48;100089.16;1790223;80;21035;-69
2022/08/14 11:43:17;;;;;;;8.95;6.25;;;;;;;32.40;36.59;100090.25;1790149;80;20988;-68
2022/08/14 11:45:47;;;;;;;8.88;5.72;;;;;;;32.42;36.26;100083.75;1790614;79;20955;-69
2022/08/14 11:48:24;;;;;;;6.80;5.62;;;;;;;32.44;36.21;100097.14;1790044;80;21194;-69
2022/08/14 11:50:56;;;;;;;10.95;6.97;;;;;;;32.38;36.19;100100.97;1790550;80;20999;-69
2022/08/14 11:53:33;;;;;;;12.98;10.82;;;;;;;32.39;36.59;100105.28;1789603;80;21074;-67
2022/08/14 11:56:01;;;;;;;9.53;6.25;;;;;;;32.41;36.57;100114.53;1788726;80;20976;-69
2022/08/14 11:58:32;;;;;;;;;;;;;;;32.37;36.07;100116.56;1790407;78;21059;-68
2022/08/14 12:01:02;;;;;;;7.53;5.83;;;;;;;32.32;36.65;100117.05;1788955;80;21762;-69
2022/08/14 12:03:48;;;;;;;10.45;8.63;;;;;;;32.24;37.09;100113.58;1785200;80;21069;-70
2022/08/14 12:06:17;;;;;;;6.53;5.00;;;;;;;32.14;36.97;100120.81;1801387;78;21560;-69
2022/08/14 12:08:49;;;;;;;9.33;5.95;;;;;;;32.03;37.36;100131.84;1785214;78;21185;-69
2022/08/14 12:11:15;;;;;;;;;;;;;;;31.92;37.58;100120.90;1790553;78;21580;-69